This is the latest recevied weather packets stored in our database for station/object KI6SYE. If no packets are shown the sender has not sent any weather packets the latest 10 day(s).
| Time | Temp. | Humidity | Pressure | Rain* | Wind** | Luminosity | Snow |
|---|---|---|---|---|---|---|---|
| 1788363251 | 21.67° C | 77% | 1016 hPa | 0 mm | - | 242 W/m² | - |
| 1788362938 | 21.67° C | 76% | 1016 hPa | 0 mm | - | 225 W/m² | - |
| 1788362634 | 21.67° C | 75% | 1016 hPa | 0 mm | - | 208 W/m² | - |
| 1788362329 | 21.11° C | 76% | 1015.8 hPa | 0 mm | - | 193 W/m² | - |
| 1788362024 | 21.67° C | 74% | 1016 hPa | 0 mm | - | 178 W/m² | - |
| 1788361719 | 21.67° C | 73% | 1016 hPa | 0 mm | - | 164 W/m² | - |
| 1788361416 | 21.11° C | 75% | 1016.2 hPa | 0 mm | - | 148 W/m² | - |
| 1788361115 | 21.67° C | 74% | 1016 hPa | 0 mm | - | 132 W/m² | - |
| 1788360810 | 21.11° C | 76% | 1016 hPa | 0 mm | - | 120 W/m² | - |
| 1788360506 | 20.56° C | 77% | 1015.8 hPa | 0 mm | - | 48 W/m² | - |
| 1788360201 | 20.56° C | 77% | 1015.8 hPa | 0 mm | - | 47 W/m² | - |
| 1788359896 | 20° C | 80% | 1015.8 hPa | 0 mm | - | 45 W/m² | - |
| 1788359591 | 20° C | 82% | 1016.1 hPa | 0 mm | - | 72 W/m² | - |
| 1788359287 | 19.44° C | 83% | 1015.7 hPa | 0 mm | - | 40 W/m² | - |
| 1788358983 | 18.89° C | 86% | 1015.7 hPa | 0 mm | - | 53 W/m² | - |
| 1788358682 | 18.33° C | 87% | 1015.6 hPa | 0 mm | - | 45 W/m² | - |
| 1788358378 | 17.78° C | 90% | 1015.5 hPa | 0 mm | - | 39 W/m² | - |
| 1788358078 | 17.22° C | 90% | 1015.6 hPa | 0 mm | - | 32 W/m² | - |
| 1788357773 | 17.22° C | 90% | 1015.5 hPa | 0 mm | - | 27 W/m² | - |
| 1788357472 | 17.22° C | 90% | 1015.6 hPa | 0 mm | - | 23 W/m² | - |
| 1788357168 | 16.67° C | 90% | 1015.4 hPa | 0 mm | - | 19 W/m² | - |
| 1788356867 | 16.67° C | 90% | 1015.3 hPa | 0 mm | - | 15 W/m² | - |
| 1788356563 | 16.67° C | 90% | 1015.2 hPa | 0 mm | - | 11 W/m² | - |
| 1788356258 | 16.67° C | 90% | 1015.4 hPa | 0 mm | - | 8 W/m² | - |
| 1788355957 | 16.11° C | 90% | 1015.1 hPa | 0 mm | - | 5 W/m² | - |
* Rain latest hour (hover to see other rain measurements)
** Current wind speed in m/s (hover to see current wind gust speed)